createdAt,value
2017-11-19T00:02:11.758Z,100522.75
2017-11-19T00:04:39.417Z,100527.97
2017-11-19T00:07:07.078Z,100523.72
2017-11-19T00:09:34.634Z,100526.94
2017-11-19T00:12:02.270Z,100530.44
2017-11-19T00:14:29.969Z,100521.44
2017-11-19T00:16:57.537Z,100518.66
2017-11-19T00:19:25.194Z,100520.62
2017-11-19T00:21:52.818Z,100521.43
2017-11-19T00:24:20.418Z,100510.47
2017-11-19T00:26:48.082Z,100505.28
2017-11-19T00:29:15.681Z,100501.07
2017-11-19T00:31:43.277Z,100505.16
2017-11-19T00:34:10.843Z,100507.42
2017-11-19T00:36:38.393Z,100502.06
2017-11-19T00:39:05.990Z,100496.82
2017-11-19T00:41:33.581Z,100490.29
2017-11-19T00:44:01.211Z,100490.77
2017-11-19T00:46:28.872Z,100491.34
2017-11-19T00:48:56.544Z,100490.67
2017-11-19T00:51:24.197Z,100487.48
2017-11-19T00:53:51.760Z,100484.74
2017-11-19T00:56:19.366Z,100485.86
2017-11-19T00:58:46.977Z,100486.58
2017-11-19T01:01:14.645Z,100485.08
2017-11-19T01:03:42.205Z,100470.86
2017-11-19T01:06:09.765Z,100481.34
2017-11-19T01:08:37.326Z,100472.13
2017-11-19T01:11:04.890Z,100473.39
2017-11-19T01:13:32.553Z,100472.02
2017-11-19T01:16:00.118Z,100471.16
2017-11-19T01:18:27.682Z,100461.59
2017-11-19T01:20:55.326Z,100461.59
2017-11-19T01:23:22.941Z,100461.29
2017-11-19T01:25:50.555Z,100461.22
2017-11-19T01:28:18.122Z,100456.34
2017-11-19T01:30:45.723Z,100448.80
2017-11-19T01:33:13.283Z,100445.27
2017-11-19T01:35:40.898Z,100442.30
2017-11-19T01:38:08.564Z,100434.84
2017-11-19T01:40:36.127Z,100426.62
2017-11-19T01:43:03.685Z,100415.91
2017-11-19T01:45:31.286Z,100416.55
2017-11-19T01:47:58.845Z,100405.14
2017-11-19T01:50:26.467Z,100408.38
2017-11-19T01:52:54.029Z,100396.31
2017-11-19T01:55:21.693Z,100401.27
2017-11-19T01:57:49.257Z,100393.95
2017-11-19T02:00:16.817Z,100393.84
2017-11-19T02:02:44.486Z,100390.74
2017-11-19T02:05:12.055Z,100387.73
2017-11-19T02:07:39.663Z,100392.20
2017-11-19T02:10:07.259Z,100385.50
2017-11-19T02:12:34.863Z,100386.79
2017-11-19T02:15:02.482Z,100385.22
2017-11-19T02:17:30.042Z,100377.84
2017-11-19T02:19:57.646Z,100376.67
2017-11-19T02:22:25.206Z,100371.89
2017-11-19T02:24:53.755Z,100374.69
2017-11-19T02:27:21.340Z,100367.92
2017-11-19T02:29:48.974Z,100375.59
2017-11-19T02:32:16.637Z,100378.19
2017-11-19T02:34:44.978Z,100382.04
2017-11-19T02:37:13.388Z,100374.66
2017-11-19T02:39:41.566Z,100366.60
2017-11-19T02:42:09.161Z,100372.34
2017-11-19T02:44:36.794Z,100375.36
2017-11-19T02:47:04.451Z,100381.16
2017-11-19T02:49:32.120Z,100380.70
2017-11-19T02:51:59.715Z,100374.90
2017-11-19T02:54:28.105Z,100367.23
2017-11-19T02:56:55.669Z,100367.65
2017-11-19T02:59:23.269Z,100365.76
2017-11-19T03:01:50.901Z,100363.69
2017-11-19T03:04:18.605Z,100365.09
2017-11-19T03:06:46.161Z,100361.33
2017-11-19T03:09:13.709Z,100365.48
2017-11-19T03:11:41.298Z,100358.66
2017-11-19T03:14:08.918Z,100360.07
2017-11-19T03:16:36.517Z,100357.00
2017-11-19T03:19:04.175Z,100350.73
2017-11-19T03:21:31.741Z,100338.20
2017-11-19T03:23:59.302Z,100341.64
2017-11-19T03:26:26.858Z,100341.70
2017-11-19T03:28:54.521Z,100343.93
2017-11-19T03:31:22.086Z,100339.63
2017-11-19T03:33:50.466Z,100336.66
2017-11-19T03:36:18.120Z,100331.48
2017-11-19T03:38:45.686Z,100331.05
2017-11-19T03:41:13.241Z,100330.11
2017-11-19T03:43:40.910Z,100325.00
2017-11-19T03:46:09.259Z,100329.72
2017-11-19T03:48:36.953Z,100322.08
2017-11-19T03:51:04.541Z,100319.04
2017-11-19T03:53:32.102Z,100330.31
2017-11-19T03:55:59.664Z,100327.34
2017-11-19T03:58:27.217Z,100325.20
2017-11-19T04:00:55.784Z,100310.26
2017-11-19T04:03:23.378Z,100311.80
2017-11-19T04:05:50.941Z,100307.02
2017-11-19T04:08:18.560Z,100303.07
2017-11-19T04:10:46.130Z,100300.95
2017-11-19T04:13:13.689Z,100304.00
2017-11-19T04:15:42.372Z,100299.25
2017-11-19T04:18:10.104Z,100294.82
2017-11-19T04:20:38.719Z,100296.05
2017-11-19T04:23:06.291Z,100292.73
2017-11-19T04:25:33.954Z,100286.53
2017-11-19T04:28:01.714Z,100288.22
2017-11-19T04:30:29.276Z,100286.66
2017-11-19T04:32:56.894Z,100293.16
2017-11-19T04:35:24.488Z,100290.25
2017-11-19T04:37:52.040Z,100290.94
2017-11-19T04:40:20.340Z,100277.64
2017-11-19T04:42:47.905Z,100276.80
2017-11-19T04:45:16.274Z,100261.64
2017-11-19T04:47:44.041Z,100274.61
2017-11-19T04:50:11.711Z,100265.92
2017-11-19T04:52:39.371Z,100269.38
2017-11-19T04:55:06.925Z,100266.41
2017-11-19T04:57:34.497Z,100261.05
2017-11-19T05:00:02.059Z,100268.30
2017-11-19T05:02:29.657Z,100257.41
2017-11-19T05:04:57.218Z,100257.86
2017-11-19T05:07:24.777Z,100254.59
2017-11-19T05:09:52.378Z,100251.09
2017-11-19T05:12:19.934Z,100244.53
2017-11-19T05:14:47.525Z,100236.57
2017-11-19T05:17:15.135Z,100240.87
2017-11-19T05:19:43.419Z,100241.98
2017-11-19T05:22:10.986Z,100244.52
2017-11-19T05:24:38.589Z,100246.02
2017-11-19T05:27:06.152Z,100242.20
2017-11-19T05:29:33.709Z,100225.76
2017-11-19T05:32:01.359Z,100232.25
2017-11-19T05:34:28.920Z,100231.38
2017-11-19T05:36:57.300Z,100227.44
2017-11-19T05:39:24.860Z,100223.66
2017-11-19T05:41:52.458Z,100221.58
2017-11-19T05:44:20.081Z,100220.91
2017-11-19T05:46:47.741Z,100212.73
2017-11-19T05:49:16.125Z,100215.56
2017-11-19T05:51:43.686Z,100211.89
2017-11-19T05:54:11.254Z,100208.83
2017-11-19T05:56:38.869Z,100216.49
2017-11-19T05:59:06.469Z,100216.52
2017-11-19T06:01:34.033Z,100221.42
2017-11-19T06:04:01.599Z,100220.21
2017-11-19T06:06:29.198Z,100216.16
2017-11-19T06:08:56.754Z,100219.79
2017-11-19T06:11:24.342Z,100219.61
2017-11-19T06:13:51.939Z,100222.52
2017-11-19T06:16:19.705Z,100221.77
2017-11-19T06:18:47.649Z,100221.29
2017-11-19T06:21:16.154Z,100220.02
2017-11-19T06:23:43.716Z,100210.33
2017-11-19T06:26:11.274Z,100222.02
2017-11-19T06:28:38.827Z,100216.75
2017-11-19T06:31:06.398Z,100218.77
2017-11-19T06:33:33.965Z,100217.24
2017-11-19T06:36:01.618Z,100216.59
2017-11-19T06:38:29.276Z,100218.84
2017-11-19T06:40:56.944Z,100228.31
2017-11-19T06:43:24.564Z,100218.91
2017-11-19T06:45:52.117Z,100226.35
2017-11-19T06:48:19.715Z,100225.61
2017-11-19T06:50:47.268Z,100216.31
2017-11-19T06:53:15.331Z,100216.87
2017-11-19T06:55:42.917Z,100214.22
2017-11-19T06:58:10.552Z,100217.03
2017-11-19T07:00:38.123Z,100212.34
2017-11-19T07:03:05.679Z,100206.92
2017-11-19T07:05:33.293Z,100201.78
2017-11-19T07:08:00.892Z,100207.16
2017-11-19T07:10:28.454Z,100213.98
2017-11-19T07:12:56.016Z,100216.38
2017-11-19T07:15:23.609Z,100221.38
2017-11-19T07:18:09.588Z,100218.34
2017-11-19T07:20:37.145Z,100207.56
2017-11-19T07:23:04.825Z,100214.47
2017-11-19T07:25:34.753Z,100203.02
2017-11-19T07:28:02.326Z,100200.72
2017-11-19T07:30:29.885Z,100195.91
2017-11-19T07:32:57.450Z,100194.70
2017-11-19T07:35:25.062Z,100196.14
2017-11-19T07:37:52.653Z,100183.54
2017-11-19T07:40:20.353Z,100191.01
2017-11-19T07:42:47.914Z,100197.55
2017-11-19T07:45:15.475Z,100192.93
2017-11-19T07:47:43.057Z,100188.38
2017-11-19T07:50:10.654Z,100190.17
2017-11-19T07:52:38.226Z,100185.57
2017-11-19T07:55:05.784Z,100183.12
2017-11-19T07:57:34.185Z,100180.59
2017-11-19T08:00:02.519Z,100178.15
2017-11-19T08:02:30.081Z,100180.78
2017-11-19T08:04:57.670Z,100176.26
2017-11-19T08:07:25.265Z,100181.76
2017-11-19T08:09:52.828Z,100179.59
2017-11-19T08:12:20.384Z,100176.16
2017-11-19T08:14:48.002Z,100164.48
2017-11-19T08:17:15.574Z,100158.84
2017-11-19T08:19:43.227Z,100164.61
2017-11-19T08:22:10.902Z,100168.83
2017-11-19T08:24:38.497Z,100160.92
2017-11-19T08:27:06.069Z,100159.59
2017-11-19T08:29:33.669Z,100175.18
2017-11-19T08:32:01.237Z,100175.77
2017-11-19T08:34:28.801Z,100178.91
2017-11-19T08:36:56.462Z,100170.14
2017-11-19T08:39:24.052Z,100173.71
2017-11-19T08:41:51.745Z,100173.80
2017-11-19T08:44:19.350Z,100175.45
2017-11-19T08:46:46.912Z,100164.17
2017-11-19T08:49:14.508Z,100166.78
2017-11-19T08:51:42.067Z,100159.02
2017-11-19T08:54:09.684Z,100166.77
2017-11-19T08:56:37.277Z,100155.13
2017-11-19T08:59:05.729Z,100169.36
2017-11-19T09:01:33.315Z,100167.90
2017-11-19T09:04:00.956Z,100168.36
2017-11-19T09:06:28.727Z,100174.30
2017-11-19T09:08:56.356Z,100166.85
2017-11-19T09:11:23.993Z,100170.03
2017-11-19T09:13:51.618Z,100160.50
2017-11-19T09:16:19.267Z,100154.91
2017-11-19T09:18:46.938Z,100169.73
2017-11-19T09:21:14.558Z,100165.83
2017-11-19T09:23:42.118Z,100158.56
2017-11-19T09:26:09.700Z,100173.39
2017-11-19T09:28:37.294Z,100168.51
2017-11-19T09:31:04.991Z,100165.53
2017-11-19T09:33:32.587Z,100166.48
2017-11-19T09:36:00.444Z,100165.62
2017-11-19T09:38:29.101Z,100164.02
2017-11-19T09:40:56.741Z,100164.93
2017-11-19T09:43:24.596Z,100167.53
2017-11-19T09:45:52.247Z,100172.27
2017-11-19T09:48:19.911Z,100158.39
2017-11-19T09:50:47.496Z,100160.58
2017-11-19T09:53:15.134Z,100156.95
2017-11-19T09:55:42.694Z,100155.00
2017-11-19T09:58:10.254Z,100163.98
2017-11-19T10:00:37.810Z,100154.58
2017-11-19T10:03:05.405Z,100147.73
2017-11-19T10:05:34.013Z,100155.98
2017-11-19T10:08:01.599Z,100139.75
2017-11-19T10:10:29.166Z,100138.22
2017-11-19T10:12:56.721Z,100135.47
2017-11-19T10:15:25.091Z,100117.61
2017-11-19T10:17:52.855Z,100127.78
2017-11-19T10:20:21.166Z,100125.34
2017-11-19T10:22:48.780Z,100142.66
2017-11-19T10:25:16.355Z,100136.23
2017-11-19T10:27:43.916Z,100141.93
2017-11-19T10:30:11.482Z,100129.39
2017-11-19T10:32:39.085Z,100143.42
2017-11-19T10:35:06.682Z,100140.28
2017-11-19T10:37:34.262Z,100139.86
2017-11-19T10:40:01.827Z,100143.94
2017-11-19T10:42:29.382Z,100133.02
2017-11-19T10:44:58.007Z,100140.20
2017-11-19T10:53:18.650Z,100134.17
2017-11-19T10:55:46.218Z,100142.88
2017-11-19T10:58:13.795Z,100122.33
2017-11-19T11:00:41.370Z,100122.72
2017-11-19T11:03:08.951Z,100122.15
2017-11-19T11:05:36.506Z,100128.00
2017-11-19T11:08:04.872Z,100126.83
2017-11-19T11:10:33.136Z,100139.06
2017-11-19T11:13:01.763Z,100130.36
2017-11-19T11:15:29.324Z,100130.09
2017-11-19T11:17:56.882Z,100130.52
2017-11-19T11:20:24.473Z,100128.58
2017-11-19T11:22:52.025Z,100120.27
2017-11-19T11:25:19.616Z,100127.68
2017-11-19T11:27:47.167Z,100119.33
2017-11-19T11:30:14.825Z,100120.14
2017-11-19T11:32:42.396Z,100119.38
2017-11-19T11:35:09.963Z,100125.34
2017-11-19T11:37:37.540Z,100127.94
2017-11-19T11:40:05.142Z,100119.91
2017-11-19T11:42:32.694Z,100128.32
2017-11-19T11:45:00.297Z,100130.77
2017-11-19T11:47:27.854Z,100126.30
2017-11-19T11:49:55.453Z,100115.91
2017-11-19T11:52:23.042Z,100111.97
2017-11-19T11:54:50.598Z,100103.41
2017-11-19T11:57:18.160Z,100110.12
2017-11-19T11:59:45.730Z,100112.61
2017-11-19T12:02:13.284Z,100111.88
2017-11-19T12:04:40.845Z,100102.58
2017-11-19T12:07:08.402Z,100096.87
2017-11-19T12:09:36.004Z,100099.72
2017-11-19T12:12:03.562Z,100089.28
2017-11-19T12:14:32.144Z,100102.48
2017-11-19T12:17:00.546Z,100081.64
2017-11-19T12:19:28.899Z,100087.06
2017-11-19T12:21:56.458Z,100095.36
2017-11-19T12:24:24.023Z,100093.38
2017-11-19T12:26:51.577Z,100090.53
2017-11-19T12:29:19.132Z,100114.75
2017-11-19T12:31:46.769Z,100101.47
2017-11-19T12:34:14.333Z,100096.34
2017-11-19T12:36:41.933Z,100090.92
2017-11-19T12:39:09.598Z,100090.04
2017-11-19T12:41:37.262Z,100082.20
2017-11-19T12:44:04.818Z,100099.06
2017-11-19T12:46:32.483Z,100094.97
2017-11-19T12:49:00.138Z,100093.67
2017-11-19T12:51:27.724Z,100091.23
2017-11-19T12:53:55.463Z,100093.56
2017-11-19T12:56:23.203Z,100088.09
2017-11-19T12:58:50.786Z,100092.27
2017-11-19T13:01:18.343Z,100098.06
2017-11-19T13:03:45.894Z,100095.05
2017-11-19T13:06:13.456Z,100092.44
2017-11-19T13:08:41.011Z,100097.29
2017-11-19T13:11:08.583Z,100097.23
2017-11-19T13:13:36.140Z,100098.13
2017-11-19T13:16:03.789Z,100104.56
2017-11-19T13:18:31.348Z,100099.44
2017-11-19T13:20:58.912Z,100108.37
2017-11-19T13:23:26.467Z,100101.50
2017-11-19T13:25:54.025Z,100092.03
2017-11-19T13:28:21.586Z,100098.09
2017-11-19T13:30:49.141Z,100098.31
2017-11-19T13:33:16.742Z,100099.62
2017-11-19T13:35:45.223Z,100107.94
2017-11-19T13:38:13.641Z,100107.64
2017-11-19T13:40:41.974Z,100096.80
2017-11-19T13:43:10.402Z,100103.91
2017-11-19T13:45:37.961Z,100098.07
2017-11-19T13:48:05.557Z,100110.98
2017-11-19T13:50:33.120Z,100108.91
2017-11-19T13:53:00.694Z,100109.79
2017-11-19T13:55:28.305Z,100110.52
2017-11-19T13:57:55.864Z,100112.05
2017-11-19T14:00:23.464Z,100110.75
2017-11-19T14:02:51.057Z,100119.23
2017-11-19T14:05:18.662Z,100116.33
2017-11-19T14:07:46.227Z,100115.11
2017-11-19T14:10:13.784Z,100122.52
2017-11-19T14:12:42.222Z,100119.91
2017-11-19T14:15:09.825Z,100128.63
2017-11-19T14:17:37.377Z,100123.85
2017-11-19T14:20:05.003Z,100127.41
2017-11-19T14:22:33.652Z,100119.42
2017-11-19T14:25:02.102Z,100125.23
2017-11-19T14:27:29.673Z,100121.59
2017-11-19T14:29:57.286Z,100118.20
2017-11-19T14:32:24.842Z,100114.11
2017-11-19T14:34:52.438Z,100111.59
2017-11-19T14:37:20.091Z,100122.89
2017-11-19T14:39:47.666Z,100108.99
2017-11-19T14:42:15.275Z,100112.05
2017-11-19T14:44:42.840Z,100103.80
2017-11-19T14:47:10.448Z,100117.02
2017-11-19T14:49:38.096Z,100115.19
2017-11-19T14:52:06.547Z,100110.45
2017-11-19T14:54:34.110Z,100109.86
2017-11-19T14:57:02.619Z,100105.19
2017-11-19T14:59:30.972Z,100106.52
2017-11-19T15:01:58.532Z,100105.63
2017-11-19T15:04:27.027Z,100112.13
2017-11-19T15:06:55.531Z,100103.47
2017-11-19T15:09:23.139Z,100105.12
2017-11-19T15:11:50.703Z,100115.11
2017-11-19T15:14:18.306Z,100113.39
2017-11-19T15:16:45.919Z,100117.45
2017-11-19T15:19:13.485Z,100126.17
2017-11-19T15:21:41.059Z,100135.41
2017-11-19T15:24:08.653Z,100130.45
2017-11-19T15:26:36.239Z,100126.52
2017-11-19T15:29:04.291Z,100146.31
2017-11-19T15:31:31.839Z,100134.38
2017-11-19T15:33:59.407Z,100134.23
2017-11-19T15:36:26.972Z,100146.86
2017-11-19T15:38:54.587Z,100149.78
2017-11-19T15:41:22.157Z,100173.91
2017-11-19T15:43:49.720Z,100176.83
2017-11-19T15:46:18.192Z,100174.04
2017-11-19T15:48:45.834Z,100168.33
2017-11-19T15:51:13.418Z,100165.43
2017-11-19T15:53:41.017Z,100164.62
2017-11-19T15:56:08.577Z,100168.37
2017-11-19T15:58:36.181Z,100172.37
2017-11-19T16:01:03.747Z,100168.26
2017-11-19T16:03:33.172Z,100168.50
2017-11-19T16:06:00.771Z,100165.87
2017-11-19T16:08:28.349Z,100177.64
2017-11-19T16:10:55.916Z,100151.69
2017-11-19T16:13:24.235Z,100153.42
2017-11-19T16:15:52.595Z,100157.55
2017-11-19T16:18:20.959Z,100149.52
2017-11-19T16:20:48.562Z,100149.80
2017-11-19T16:23:16.129Z,100155.95
2017-11-19T16:25:44.633Z,100161.63
2017-11-19T16:28:12.194Z,100148.20
2017-11-19T16:30:39.759Z,100153.64
2017-11-19T16:33:08.202Z,100149.05
2017-11-19T16:35:35.784Z,100154.64
2017-11-19T16:38:03.350Z,100151.56
2017-11-19T16:40:31.708Z,100151.17
2017-11-19T16:42:59.277Z,100147.33
2017-11-19T16:45:27.650Z,100138.50
2017-11-19T16:47:56.013Z,100149.09
2017-11-19T16:50:23.591Z,100155.34
2017-11-19T16:52:51.243Z,100156.11
2017-11-19T16:55:21.527Z,100168.83
2017-11-19T16:57:49.257Z,100168.59
2017-11-19T17:00:16.874Z,100158.98
2017-11-19T17:02:44.434Z,100191.86
2017-11-19T17:05:12.010Z,100191.42
2017-11-19T17:07:39.565Z,100200.80
2017-11-19T17:10:07.132Z,100205.84
2017-11-19T17:12:34.693Z,100205.91
2017-11-19T17:15:02.247Z,100217.09
2017-11-19T17:17:29.862Z,100242.27
2017-11-19T17:19:57.416Z,100254.28
2017-11-19T17:22:24.982Z,100249.17
2017-11-19T17:24:52.539Z,100249.50
2017-11-19T17:27:20.189Z,100196.64
2017-11-19T17:29:47.799Z,100240.40
2017-11-19T17:32:15.353Z,100232.05
2017-11-19T17:34:42.913Z,100210.25
2017-11-19T17:37:10.658Z,100210.81
2017-11-19T17:39:39.152Z,100220.17
2017-11-19T17:42:06.763Z,100231.80
2017-11-19T17:44:35.233Z,100221.83
2017-11-19T17:47:02.834Z,100215.69
2017-11-19T17:49:31.424Z,100225.07
2017-11-19T17:51:59.347Z,100231.89
2017-11-19T17:54:26.945Z,100246.35
2017-11-19T17:56:54.513Z,100237.84
2017-11-19T17:59:22.073Z,100237.09
2017-11-19T18:01:49.634Z,100248.61
2017-11-19T18:04:18.145Z,100247.88
2017-11-19T18:06:45.737Z,100251.50
2017-11-19T18:09:14.225Z,100247.05
2017-11-19T18:11:42.680Z,100253.03
2017-11-19T18:14:11.115Z,100248.61
2017-11-19T18:16:39.443Z,100249.17
2017-11-19T18:19:07.059Z,100244.19
2017-11-19T18:21:34.654Z,100249.03
2017-11-19T18:24:02.277Z,100250.11
2017-11-19T18:26:29.877Z,100249.17
2017-11-19T18:28:57.451Z,100253.92
2017-11-19T18:31:25.022Z,100255.39
2017-11-19T18:33:52.627Z,100258.98
2017-11-19T18:36:20.249Z,100260.87
2017-11-19T18:38:47.850Z,100263.27
2017-11-19T18:41:15.414Z,100266.66
2017-11-19T18:43:43.087Z,100267.97
2017-11-19T18:46:10.716Z,100267.84
2017-11-19T18:48:38.296Z,100274.16
2017-11-19T18:51:05.870Z,100267.45
2017-11-19T18:53:33.437Z,100267.67
2017-11-19T18:56:01.001Z,100279.82
2017-11-19T18:58:28.567Z,100288.25
2017-11-19T19:00:56.165Z,100290.29
2017-11-19T19:03:24.548Z,100278.11
2017-11-19T19:05:52.407Z,100297.61
2017-11-19T19:08:20.208Z,100299.58
2017-11-19T19:10:50.130Z,100300.59
2017-11-19T19:13:17.692Z,100309.01
2017-11-19T19:15:45.289Z,100302.47
2017-11-19T19:18:12.943Z,100304.73
2017-11-19T19:20:40.635Z,100309.75
2017-11-19T19:23:08.200Z,100313.73
2017-11-19T19:25:35.756Z,100322.94
2017-11-19T19:28:03.554Z,100326.47
2017-11-19T19:30:31.977Z,100331.55
2017-11-19T19:33:02.568Z,100339.73
2017-11-19T19:35:30.709Z,100345.44
2017-11-19T19:37:58.377Z,100351.29
2017-11-19T19:40:26.745Z,100366.16
2017-11-19T19:42:55.909Z,100361.06
2017-11-19T19:45:27.085Z,100368.50
2017-11-19T19:47:57.558Z,100373.13
2017-11-19T19:50:26.789Z,100380.73
2017-11-19T19:52:58.298Z,100393.80
2017-11-19T19:55:28.043Z,100387.03
2017-11-19T19:57:57.501Z,100398.66
2017-11-19T20:00:32.234Z,100411.66
2017-11-19T20:03:02.059Z,100408.38
2017-11-19T20:05:31.617Z,100422.96
2017-11-19T20:08:00.720Z,100422.14
2017-11-19T20:10:30.219Z,100432.02
2017-11-19T20:13:09.893Z,100430.45
2017-11-19T20:15:37.461Z,100443.77
2017-11-19T20:18:05.800Z,100435.59
2017-11-19T20:20:33.418Z,100446.11
2017-11-19T20:23:03.964Z,100446.94
2017-11-19T20:25:34.712Z,100450.92
2017-11-19T20:28:04.309Z,100455.13
2017-11-19T20:30:32.503Z,100448.59
2017-11-19T20:33:07.922Z,100463.05
2017-11-19T20:35:42.891Z,100460.06
2017-11-19T20:38:15.279Z,100457.59
2017-11-19T20:40:43.967Z,100467.05
2017-11-19T20:43:25.356Z,100469.38
2017-11-19T20:45:57.177Z,100480.13
2017-11-19T20:48:26.580Z,100483.66
2017-11-19T20:50:54.750Z,100478.50
2017-11-19T20:53:23.885Z,100490.09
2017-11-19T20:55:53.888Z,100491.28
2017-11-19T20:58:27.763Z,100495.24
2017-11-19T21:01:00.116Z,100499.36
2017-11-19T21:03:28.413Z,100504.84
2017-11-19T21:05:57.704Z,100514.39
2017-11-19T21:08:36.305Z,100511.84
2017-11-19T21:11:09.937Z,100519.61
2017-11-19T21:13:40.605Z,100525.09
2017-11-19T21:16:12.045Z,100523.76
2017-11-19T21:18:40.166Z,100527.82
2017-11-19T21:21:14.863Z,100530.87
2017-11-19T21:23:45.591Z,100537.20
2017-11-19T21:26:15.191Z,100545.28
2017-11-19T21:28:49.288Z,100556.00
2017-11-19T21:31:19.945Z,100549.22
2017-11-19T21:33:55.580Z,100559.52
2017-11-19T21:36:26.729Z,100556.84
2017-11-19T21:39:01.907Z,100564.65
2017-11-19T21:41:33.000Z,100571.25
2017-11-19T21:44:07.259Z,100557.98
2017-11-19T21:46:34.824Z,100560.10
2017-11-19T21:49:03.039Z,100568.45
2017-11-19T21:51:31.408Z,100580.63
2017-11-19T21:53:59.656Z,100583.38
2017-11-19T21:56:29.044Z,100581.50
2017-11-19T21:58:57.259Z,100586.96
2017-11-19T22:01:26.440Z,100584.70
2017-11-19T22:03:55.246Z,100595.06
2017-11-19T22:06:22.853Z,100595.88
2017-11-19T22:08:51.183Z,100593.02
2017-11-19T22:11:18.747Z,100596.03
2017-11-19T22:13:47.095Z,100612.66
2017-11-19T22:16:14.654Z,100604.58
2017-11-19T22:18:43.156Z,100606.80
2017-11-19T22:21:10.715Z,100611.50
2017-11-19T22:23:38.276Z,100619.37
2017-11-19T22:26:05.837Z,100630.06
2017-11-19T22:28:34.285Z,100619.91
2017-11-19T22:31:02.569Z,100625.88
2017-11-19T22:33:30.129Z,100631.94
2017-11-19T22:35:57.690Z,100632.83
2017-11-19T22:38:25.276Z,100635.41
2017-11-19T22:40:52.830Z,100637.40
2017-11-19T22:43:20.399Z,100636.87
2017-11-19T22:45:47.958Z,100630.66
2017-11-19T22:48:15.519Z,100645.89
2017-11-19T22:50:43.083Z,100643.02
2017-11-19T22:53:10.635Z,100646.66
2017-11-19T22:55:39.099Z,100654.45
2017-11-19T22:58:06.656Z,100650.88
2017-11-19T23:00:34.223Z,100655.33
2017-11-19T23:03:01.804Z,100658.53
2017-11-19T23:05:29.359Z,100661.40
2017-11-19T23:07:57.754Z,100669.45
2017-11-19T23:10:26.229Z,100674.80
2017-11-19T23:12:53.786Z,100674.03
2017-11-19T23:15:21.342Z,100680.67
2017-11-19T23:17:48.897Z,100689.55
2017-11-19T23:20:16.457Z,100684.30
2017-11-19T23:22:44.057Z,100698.47
2017-11-19T23:25:11.621Z,100699.39
2017-11-19T23:27:39.172Z,100704.33
2017-11-19T23:30:06.725Z,100702.09
2017-11-19T23:32:34.278Z,100704.20
2017-11-19T23:35:01.838Z,100715.45
2017-11-19T23:37:29.438Z,100710.55
2017-11-19T23:39:57.002Z,100716.30
2017-11-19T23:42:24.560Z,100719.50
2017-11-19T23:44:52.113Z,100719.71
2017-11-19T23:47:19.739Z,100724.91
2017-11-19T23:49:47.297Z,100731.61
2017-11-19T23:52:14.863Z,100739.22
2017-11-19T23:54:42.420Z,100741.83
2017-11-19T23:57:09.980Z,100740.53
2017-11-19T23:59:37.539Z,100741.80
